createdAt,value
2018-10-03T00:01:19.780Z,13.20
2018-10-03T00:03:51.137Z,13.20
2018-10-03T00:06:21.916Z,13.20
2018-10-03T00:08:53.060Z,13.20
2018-10-03T00:11:23.333Z,13.20
2018-10-03T00:13:59.769Z,13.20
2018-10-03T00:16:31.462Z,13.10
2018-10-03T00:19:10.801Z,13.10
2018-10-03T00:21:51.802Z,13.10
2018-10-03T00:24:23.343Z,13.10
2018-10-03T00:26:53.926Z,13.10
2018-10-03T00:29:24.101Z,13.20
2018-10-03T00:31:54.398Z,13.20
2018-10-03T00:34:24.250Z,13.20
2018-10-03T00:36:55.830Z,13.20
2018-10-03T00:39:29.005Z,13.20
2018-10-03T00:42:00.764Z,13.20
2018-10-03T00:44:30.325Z,13.10
2018-10-03T00:47:09.805Z,13.00
2018-10-03T00:49:41.079Z,13.10
2018-10-03T00:52:13.680Z,13.10
2018-10-03T00:54:47.863Z,13.10
2018-10-03T00:57:24.317Z,13.10
2018-10-03T00:59:55.387Z,13.10
2018-10-03T01:02:26.810Z,13.00
2018-10-03T01:04:58.035Z,13.00
2018-10-03T01:07:28.085Z,13.00
2018-10-03T01:09:59.707Z,12.90
2018-10-03T01:12:31.738Z,12.90
2018-10-03T01:15:03.794Z,12.90
2018-10-03T01:17:35.519Z,12.90
2018-10-03T01:20:13.565Z,12.90
2018-10-03T01:22:50.393Z,12.90
2018-10-03T01:25:22.904Z,12.90
2018-10-03T01:27:53.614Z,12.90
2018-10-03T01:30:35.345Z,13.00
2018-10-03T01:33:10.788Z,12.90
2018-10-03T01:35:42.669Z,12.90
2018-10-03T01:38:14.530Z,12.90
2018-10-03T01:40:46.713Z,12.90
2018-10-03T01:43:24.256Z,12.90
2018-10-03T01:46:00.213Z,12.90
2018-10-03T01:48:35.625Z,12.90
2018-10-03T01:51:06.505Z,12.80
2018-10-03T01:53:37.024Z,12.80
2018-10-03T01:56:07.361Z,12.80
2018-10-03T01:58:37.112Z,12.70
2018-10-03T02:01:07.587Z,12.70
2018-10-03T02:03:39.174Z,12.70
2018-10-03T02:06:09.748Z,12.70
2018-10-03T02:08:45.196Z,12.70
2018-10-03T02:11:15.546Z,12.70
2018-10-03T02:13:50.823Z,12.70
2018-10-03T02:16:27.724Z,12.70
2018-10-03T02:18:59.531Z,12.70
2018-10-03T02:21:29.427Z,12.70
2018-10-03T02:24:01.335Z,12.70
2018-10-03T02:26:32.586Z,12.70
2018-10-03T02:29:06.143Z,12.70
2018-10-03T02:31:37.358Z,12.80
2018-10-03T02:34:07.698Z,12.80
2018-10-03T02:36:41.473Z,12.80
2018-10-03T02:39:13.258Z,12.80
2018-10-03T02:41:50.825Z,12.90
2018-10-03T02:44:23.470Z,12.90
2018-10-03T02:46:55.930Z,12.90
2018-10-03T02:49:26.262Z,12.90
2018-10-03T02:51:57.903Z,12.90
2018-10-03T02:54:27.520Z,12.90
2018-10-03T02:56:59.212Z,12.90
2018-10-03T02:59:30.479Z,12.90
2018-10-03T03:02:01.229Z,12.90
2018-10-03T03:04:38.426Z,12.90
2018-10-03T03:07:10.709Z,12.90
2018-10-03T03:09:45.933Z,12.90
2018-10-03T03:12:17.486Z,12.90
2018-10-03T03:14:48.358Z,12.90
2018-10-03T03:17:20.381Z,12.80
2018-10-03T03:19:57.595Z,12.80
2018-10-03T03:22:28.322Z,12.80
2018-10-03T03:24:59.548Z,12.90
2018-10-03T03:27:30.858Z,12.90
2018-10-03T03:30:02.656Z,12.90
2018-10-03T03:32:33.375Z,12.90
2018-10-03T03:35:03.423Z,12.90
2018-10-03T03:37:33.480Z,12.90
2018-10-03T03:40:08.196Z,12.90
2018-10-03T03:42:46.795Z,12.90
2018-10-03T03:45:26.414Z,13.00
2018-10-03T03:48:01.847Z,13.00
2018-10-03T03:50:32.265Z,12.90
2018-10-03T03:53:06.935Z,12.90
2018-10-03T03:55:37.351Z,12.90
2018-10-03T03:58:08.071Z,12.80
2018-10-03T04:00:45.960Z,12.90
2018-10-03T04:03:22.320Z,12.90
2018-10-03T04:05:54.003Z,12.90
2018-10-03T04:08:25.903Z,12.90
2018-10-03T04:10:58.096Z,12.90
2018-10-03T04:13:29.172Z,12.90
2018-10-03T04:16:00.171Z,12.90
2018-10-03T04:18:30.621Z,12.90
2018-10-03T04:21:09.738Z,12.80
2018-10-03T04:23:40.879Z,12.90
2018-10-03T04:26:12.593Z,12.80
2018-10-03T04:28:48.796Z,12.80
2018-10-03T04:31:19.418Z,12.80
2018-10-03T04:33:56.057Z,12.80
2018-10-03T04:36:32.151Z,12.80
2018-10-03T04:39:09.513Z,12.90
2018-10-03T04:41:47.470Z,12.90
2018-10-03T04:44:17.595Z,12.90
2018-10-03T04:46:49.645Z,12.90
2018-10-03T04:49:21.243Z,12.80
2018-10-03T04:51:59.598Z,12.90
2018-10-03T04:54:30.337Z,12.90
2018-10-03T04:57:06.182Z,12.90
2018-10-03T04:59:38.385Z,12.90
2018-10-03T05:02:09.781Z,12.90
2018-10-03T05:04:50.543Z,13.00
2018-10-03T05:07:20.952Z,13.00
2018-10-03T05:09:53.086Z,13.00
2018-10-03T05:12:28.249Z,13.00
2018-10-03T05:15:01.837Z,13.00
2018-10-03T05:17:40.180Z,13.10
2018-10-03T05:20:11.085Z,13.10
2018-10-03T05:22:48.446Z,13.10
2018-10-03T05:25:20.721Z,13.00
2018-10-03T05:27:50.486Z,13.10
2018-10-03T05:30:22.387Z,13.20
2018-10-03T05:32:52.439Z,13.20
2018-10-03T05:35:23.836Z,13.20
2018-10-03T05:37:56.473Z,13.20
2018-10-03T05:40:27.466Z,13.20
2018-10-03T05:43:02.762Z,13.20
2018-10-03T05:45:33.154Z,13.20
2018-10-03T05:48:05.887Z,13.20
2018-10-03T05:50:41.069Z,13.30
2018-10-03T05:53:11.888Z,13.30
2018-10-03T05:55:47.891Z,13.30
2018-10-03T05:58:19.793Z,13.30
2018-10-03T06:00:59.913Z,13.30
2018-10-03T06:03:31.574Z,13.40
2018-10-03T06:06:02.039Z,13.40
2018-10-03T06:08:35.059Z,13.40
2018-10-03T06:11:09.509Z,13.40
2018-10-03T06:13:40.161Z,13.40
2018-10-03T06:16:15.341Z,13.30
2018-10-03T06:18:50.307Z,13.30
2018-10-03T06:21:22.138Z,13.40
2018-10-03T06:23:53.922Z,13.30
2018-10-03T06:26:25.944Z,13.40
2018-10-03T06:28:57.227Z,13.50
2018-10-03T06:31:28.654Z,13.50
2018-10-03T06:34:00.939Z,13.50
2018-10-03T06:36:33.993Z,13.50
2018-10-03T06:39:07.783Z,13.50
2018-10-03T06:44:18.072Z,13.70
2018-10-03T06:46:51.588Z,13.70
2018-10-03T06:49:23.287Z,13.60
2018-10-03T06:51:58.041Z,13.60
2018-10-03T06:54:33.535Z,13.70
2018-10-03T06:57:06.445Z,13.70
2018-10-03T06:59:39.677Z,13.70
2018-10-03T07:02:12.366Z,13.60
2018-10-03T07:04:50.870Z,13.70
2018-10-03T07:07:26.244Z,13.80
2018-10-03T07:09:59.283Z,13.80
2018-10-03T07:12:30.670Z,13.80
2018-10-03T07:15:02.853Z,13.80
2018-10-03T07:17:34.015Z,13.80
2018-10-03T07:20:07.983Z,13.90
2018-10-03T07:22:38.994Z,13.90
2018-10-03T07:25:15.085Z,13.90
2018-10-03T07:27:46.457Z,14.00
2018-10-03T07:30:18.286Z,14.00
2018-10-03T07:32:57.477Z,14.00
2018-10-03T07:35:29.736Z,14.00
2018-10-03T07:38:07.092Z,14.00
2018-10-03T07:40:45.849Z,14.10
2018-10-03T07:43:17.864Z,14.10
2018-10-03T07:45:48.137Z,14.00
2018-10-03T07:48:19.862Z,14.00
2018-10-03T07:50:50.992Z,14.10
2018-10-03T07:53:21.775Z,14.10
2018-10-03T07:55:56.405Z,14.10
2018-10-03T07:58:27.517Z,14.10
2018-10-03T08:01:03.924Z,14.10
2018-10-03T08:03:43.090Z,14.10
2018-10-03T08:06:16.011Z,14.10
2018-10-03T08:08:55.268Z,14.10
2018-10-03T08:11:37.315Z,14.20
2018-10-03T08:14:08.292Z,14.30
2018-10-03T08:16:40.818Z,14.30
2018-10-03T08:19:12.805Z,14.40
2018-10-03T08:21:48.491Z,14.50
2018-10-03T08:24:19.547Z,14.50
2018-10-03T08:26:50.877Z,14.40
2018-10-03T08:29:20.844Z,14.40
2018-10-03T08:31:55.903Z,14.50
2018-10-03T08:34:27.280Z,14.60
2018-10-03T08:36:59.082Z,14.50
2018-10-03T08:39:30.027Z,14.40
2018-10-03T08:42:02.939Z,14.40
2018-10-03T08:44:37.520Z,14.40
2018-10-03T08:47:14.354Z,14.50
2018-10-03T08:49:54.202Z,14.50
2018-10-03T08:52:25.185Z,14.40
2018-10-03T08:54:56.739Z,14.40
2018-10-03T08:57:31.798Z,14.40
2018-10-03T09:00:12.977Z,14.40
2018-10-03T09:02:51.023Z,14.40
2018-10-03T09:05:22.664Z,14.40
2018-10-03T09:07:57.662Z,14.40
2018-10-03T09:10:29.732Z,14.40
2018-10-03T09:13:00.450Z,14.40
2018-10-03T09:15:31.265Z,14.40
2018-10-03T09:18:01.997Z,14.40
2018-10-03T09:20:33.302Z,14.40
2018-10-03T09:23:03.614Z,14.40
2018-10-03T09:25:34.957Z,14.40
2018-10-03T09:28:07.384Z,14.50
2018-10-03T09:30:37.926Z,14.50
2018-10-03T09:33:08.129Z,14.50
2018-10-03T09:35:39.975Z,14.60
2018-10-03T09:38:10.725Z,14.50
2018-10-03T09:40:49.063Z,14.50
2018-10-03T09:43:21.369Z,14.70
2018-10-03T09:46:01.744Z,14.80
2018-10-03T09:48:36.713Z,15.00
2018-10-03T09:51:07.956Z,15.00
2018-10-03T09:53:40.330Z,15.10
2018-10-03T09:56:11.870Z,15.20
2018-10-03T09:58:49.533Z,15.20
2018-10-03T10:01:29.386Z,15.30
2018-10-03T10:04:01.817Z,15.30
2018-10-03T10:06:32.899Z,15.40
2018-10-03T10:09:05.576Z,15.50
2018-10-03T10:11:49.792Z,15.60
2018-10-03T10:14:20.824Z,15.60
2018-10-03T10:16:53.417Z,15.70
2018-10-03T10:19:24.531Z,15.70
2018-10-03T10:21:55.861Z,15.70
2018-10-03T10:24:30.518Z,15.70
2018-10-03T10:27:03.153Z,15.60
2018-10-03T10:29:33.847Z,15.60
2018-10-03T10:32:09.633Z,15.60
2018-10-03T10:34:40.897Z,15.70
2018-10-03T10:37:13.209Z,15.80
2018-10-03T10:39:48.826Z,15.90
2018-10-03T10:42:19.802Z,15.90
2018-10-03T10:44:51.895Z,15.90
2018-10-03T10:47:33.294Z,16.00
2018-10-03T10:50:05.490Z,16.10
2018-10-03T10:52:46.983Z,16.10
2018-10-03T10:55:17.333Z,16.20
2018-10-03T10:57:50.007Z,16.10
2018-10-03T11:00:21.471Z,16.10
2018-10-03T11:02:56.573Z,16.00
2018-10-03T11:05:27.790Z,15.90
2018-10-03T11:07:59.411Z,15.80
2018-10-03T11:10:30.963Z,15.70
2018-10-03T11:13:02.869Z,15.70
2018-10-03T11:15:33.974Z,15.70
2018-10-03T11:18:04.449Z,15.70
2018-10-03T11:27:37.341Z,15.50
2018-10-03T11:30:08.299Z,15.50
2018-10-03T11:32:40.365Z,15.40
2018-10-03T11:35:12.243Z,15.50
2018-10-03T11:37:48.999Z,15.60
2018-10-03T11:40:19.086Z,15.70
2018-10-03T11:42:51.453Z,15.80
2018-10-03T11:45:26.651Z,16.00
2018-10-03T11:47:57.552Z,16.00
2018-10-03T11:50:29.880Z,16.10
2018-10-03T11:53:05.110Z,16.20
2018-10-03T11:55:35.848Z,16.30
2018-10-03T11:58:11.252Z,16.50
2018-10-03T12:00:45.472Z,16.70
2018-10-03T12:03:18.301Z,16.70
2018-10-03T12:05:51.482Z,16.90
2018-10-03T12:08:27.141Z,17.00
2018-10-03T12:10:58.567Z,17.10
2018-10-03T12:13:34.618Z,17.10
2018-10-03T12:16:06.743Z,17.20
2018-10-03T12:18:47.722Z,17.30
2018-10-03T12:21:19.236Z,17.30
2018-10-03T12:23:50.610Z,17.40
2018-10-03T12:26:22.590Z,17.50
2018-10-03T12:28:59.051Z,17.50
2018-10-03T12:31:36.197Z,17.60
2018-10-03T12:34:09.348Z,17.70
2018-10-03T12:36:47.106Z,17.70
2018-10-03T12:39:17.629Z,17.70
2018-10-03T12:41:50.668Z,17.70
2018-10-03T12:44:22.889Z,17.60
2018-10-03T12:46:54.447Z,17.70
2018-10-03T12:49:25.922Z,17.70
2018-10-03T12:51:56.740Z,17.80
2018-10-03T12:54:27.669Z,17.80
2018-10-03T12:56:58.961Z,17.80
2018-10-03T12:59:33.941Z,17.80
2018-10-03T13:02:08.855Z,17.80
2018-10-03T13:04:39.933Z,17.70
2018-10-03T13:07:15.414Z,17.70
2018-10-03T13:09:46.283Z,17.70
2018-10-03T13:12:21.401Z,17.70
2018-10-03T13:14:56.951Z,17.60
2018-10-03T13:17:28.398Z,17.50
2018-10-03T13:19:58.931Z,17.60
2018-10-03T13:22:34.182Z,17.40
2018-10-03T13:25:05.642Z,17.40
2018-10-03T13:27:37.185Z,17.50
2018-10-03T13:30:07.444Z,17.50
2018-10-03T13:32:45.187Z,17.50
2018-10-03T13:35:19.803Z,17.50
2018-10-03T13:37:50.933Z,17.50
2018-10-03T13:40:20.821Z,17.50
2018-10-03T13:42:56.749Z,17.40
2018-10-03T13:45:31.579Z,17.40
2018-10-03T13:48:02.303Z,17.30
2018-10-03T13:50:35.044Z,17.20
2018-10-03T13:53:13.037Z,17.30
2018-10-03T13:55:49.045Z,17.20
2018-10-03T13:58:20.989Z,17.10
2018-10-03T14:00:57.548Z,17.20
2018-10-03T14:03:29.381Z,17.20
2018-10-03T14:06:00.700Z,17.20
2018-10-03T14:11:48.545Z,17.30
2018-10-03T14:14:21.318Z,17.20
2018-10-03T14:17:00.350Z,17.20
2018-10-03T14:19:35.925Z,17.30
2018-10-03T14:22:08.172Z,17.30
2018-10-03T14:24:49.336Z,17.30
2018-10-03T14:27:28.509Z,17.30
2018-10-03T14:30:02.027Z,17.20
2018-10-03T14:32:33.194Z,17.20
2018-10-03T14:35:04.529Z,17.20
2018-10-03T14:37:39.869Z,17.20
2018-10-03T14:40:10.761Z,17.10
2018-10-03T14:42:40.609Z,17.10
2018-10-03T14:45:12.652Z,17.10
2018-10-03T14:47:49.266Z,17.20
2018-10-03T14:50:21.379Z,17.10
2018-10-03T14:52:51.946Z,17.00
2018-10-03T14:55:23.756Z,17.00
2018-10-03T14:57:59.912Z,17.10
2018-10-03T15:00:37.555Z,17.10
2018-10-03T15:03:10.861Z,17.10
2018-10-03T15:05:45.085Z,17.10
2018-10-03T15:08:18.753Z,17.10
2018-10-03T15:10:50.416Z,17.10
2018-10-03T15:13:27.093Z,17.10
2018-10-03T15:15:57.440Z,17.10
2018-10-03T15:21:03.571Z,17.10
2018-10-03T15:23:41.476Z,17.20
2018-10-03T15:26:13.768Z,17.20
2018-10-03T15:28:45.788Z,17.10
2018-10-03T15:31:22.810Z,17.10
2018-10-03T15:34:00.840Z,17.10
2018-10-03T15:36:34.803Z,17.00
2018-10-03T15:39:10.145Z,17.10
2018-10-03T15:41:42.267Z,17.10
2018-10-03T15:44:19.612Z,17.10
2018-10-03T15:46:51.613Z,17.10
2018-10-03T15:49:31.355Z,17.10
2018-10-03T15:52:03.775Z,17.10
2018-10-03T15:54:40.553Z,17.10
2018-10-03T15:57:14.451Z,17.00
2018-10-03T15:59:49.681Z,17.00
2018-10-03T16:02:20.783Z,17.00
2018-10-03T16:04:52.941Z,17.00
2018-10-03T16:07:27.623Z,17.10
2018-10-03T16:10:04.107Z,17.10
2018-10-03T16:12:34.807Z,17.00
2018-10-03T16:15:05.931Z,16.90
2018-10-03T16:17:36.699Z,16.90
2018-10-03T16:20:08.752Z,16.90
2018-10-03T16:22:42.171Z,16.90
2018-10-03T16:25:16.677Z,16.90
2018-10-03T16:27:59.721Z,16.90
2018-10-03T16:30:33.989Z,16.90
2018-10-03T16:33:05.775Z,16.90
2018-10-03T16:35:38.595Z,16.90
2018-10-03T16:38:10.784Z,16.80
2018-10-03T16:40:43.972Z,16.80
2018-10-03T16:43:15.361Z,16.60
2018-10-03T16:45:49.105Z,16.60
2018-10-03T16:48:20.550Z,16.60
2018-10-03T16:50:55.926Z,16.60
2018-10-03T16:53:28.750Z,16.60
2018-10-03T16:55:59.543Z,16.60
2018-10-03T16:58:30.178Z,16.60
2018-10-03T17:03:50.127Z,16.70
2018-10-03T17:06:21.271Z,16.60
2018-10-03T17:08:52.775Z,16.60
2018-10-03T17:11:25.047Z,16.60
2018-10-03T17:14:32.374Z,16.60
2018-10-03T17:17:03.686Z,16.60
2018-10-03T17:19:36.007Z,16.50
2018-10-03T17:22:16.957Z,16.50
2018-10-03T17:24:46.944Z,16.50
2018-10-03T17:27:19.206Z,16.40
2018-10-03T17:29:49.622Z,16.40
2018-10-03T17:32:19.985Z,16.40
2018-10-03T17:34:52.271Z,16.40
2018-10-03T17:37:23.682Z,16.30
2018-10-03T17:39:55.779Z,16.30
2018-10-03T17:42:27.002Z,16.20
2018-10-03T17:45:04.696Z,16.20
2018-10-03T17:47:37.435Z,16.20
2018-10-03T17:50:08.604Z,16.20
2018-10-03T17:52:39.987Z,16.20
2018-10-03T17:55:16.463Z,16.20
2018-10-03T17:57:56.678Z,16.10
2018-10-03T18:00:30.222Z,16.20
2018-10-03T18:03:06.786Z,16.20
2018-10-03T18:05:37.272Z,16.10
2018-10-03T18:08:07.472Z,16.20
2018-10-03T18:10:38.568Z,16.20
2018-10-03T18:13:18.007Z,16.20
2018-10-03T18:15:51.123Z,16.30
2018-10-03T18:18:21.950Z,16.30
2018-10-03T18:20:54.411Z,16.30
2018-10-03T18:23:25.160Z,16.30
2018-10-03T18:26:01.488Z,16.20
2018-10-03T18:28:32.708Z,16.20
2018-10-03T18:31:03.258Z,16.20
2018-10-03T18:33:34.423Z,16.10
2018-10-03T18:36:14.652Z,16.20
2018-10-03T18:38:46.799Z,16.10
2018-10-03T18:41:18.913Z,16.10
2018-10-03T18:43:52.552Z,16.10
2018-10-03T18:46:28.726Z,16.10
2018-10-03T18:49:03.375Z,16.00
2018-10-03T18:51:37.009Z,16.00
2018-10-03T18:56:48.013Z,16.00
2018-10-03T18:59:24.890Z,15.90
2018-10-03T19:01:54.940Z,15.90
2018-10-03T19:04:28.630Z,15.90
2018-10-03T19:07:02.490Z,15.80
2018-10-03T19:10:41.445Z,15.80
2018-10-03T19:13:21.600Z,15.80
2018-10-03T19:15:53.568Z,15.80
2018-10-03T19:18:25.320Z,15.60
2018-10-03T19:20:57.251Z,15.50
2018-10-03T19:26:10.129Z,15.40
2018-10-03T19:28:44.198Z,15.30
2018-10-03T19:31:16.521Z,15.30
2018-10-03T19:33:52.618Z,15.40
2018-10-03T19:36:31.490Z,15.40
2018-10-03T19:39:06.322Z,15.40
2018-10-03T19:41:39.004Z,15.40
2018-10-03T19:44:10.972Z,15.30
2018-10-03T19:46:43.611Z,15.30
2018-10-03T19:49:18.172Z,15.20
2018-10-03T19:51:51.075Z,15.20
2018-10-03T19:54:28.387Z,15.20
2018-10-03T19:57:00.291Z,15.30
2018-10-03T19:59:33.890Z,15.20
2018-10-03T20:02:04.697Z,15.30
2018-10-03T20:04:36.448Z,15.20
2018-10-03T20:07:08.113Z,15.20
2018-10-03T20:09:43.755Z,15.20
2018-10-03T20:12:17.117Z,15.10
2018-10-03T20:14:49.570Z,15.10
2018-10-03T20:17:21.308Z,15.10
2018-10-03T20:19:53.245Z,15.10
2018-10-03T20:22:24.437Z,15.10
2018-10-03T20:24:57.048Z,15.20
2018-10-03T20:27:27.788Z,15.20
2018-10-03T20:29:59.870Z,15.20
2018-10-03T20:32:32.053Z,15.30
2018-10-03T20:35:09.465Z,15.20
2018-10-03T20:37:41.269Z,15.10
2018-10-03T20:40:13.955Z,15.10
2018-10-03T20:42:45.743Z,14.90
2018-10-03T20:45:20.201Z,14.90
2018-10-03T20:47:54.775Z,15.00
2018-10-03T20:50:27.498Z,15.00
2018-10-03T20:52:58.902Z,14.90
2018-10-03T20:55:30.201Z,15.00
2018-10-03T20:58:10.513Z,15.00
2018-10-03T21:00:41.661Z,15.00
2018-10-03T21:03:15.750Z,15.00
2018-10-03T21:05:50.772Z,15.00
2018-10-03T21:08:26.992Z,15.10
2018-10-03T21:10:58.258Z,15.00
2018-10-03T21:13:28.590Z,15.00
2018-10-03T21:16:08.545Z,15.00
2018-10-03T21:18:41.869Z,15.00
2018-10-03T21:21:14.389Z,14.90
2018-10-03T21:23:45.688Z,15.00
2018-10-03T21:26:16.843Z,15.00
2018-10-03T21:28:48.026Z,15.00
2018-10-03T21:31:27.942Z,15.00
2018-10-03T21:34:00.686Z,14.90
2018-10-03T21:36:33.553Z,14.90
2018-10-03T21:39:05.417Z,14.90
2018-10-03T21:41:40.255Z,14.80
2018-10-03T21:44:13.360Z,14.80
2018-10-03T21:46:43.515Z,14.80
2018-10-03T21:49:19.163Z,14.80
2018-10-03T21:51:52.935Z,14.70
2018-10-03T21:54:23.243Z,14.70
2018-10-03T21:56:55.409Z,14.60
2018-10-03T21:59:25.664Z,14.60
2018-10-03T22:02:05.283Z,14.50
2018-10-03T22:04:37.285Z,14.50
2018-10-03T22:07:09.582Z,14.50
2018-10-03T22:09:44.200Z,14.50
2018-10-03T22:12:16.444Z,14.50
2018-10-03T22:14:53.660Z,14.50
2018-10-03T22:17:26.242Z,14.50
2018-10-03T22:19:58.941Z,14.50
2018-10-03T22:22:29.036Z,14.50
2018-10-03T22:25:02.336Z,14.50
2018-10-03T22:27:33.434Z,14.50
2018-10-03T22:30:04.366Z,14.50
2018-10-03T22:32:39.955Z,14.60
2018-10-03T22:35:12.134Z,14.50
2018-10-03T22:37:42.586Z,14.50
2018-10-03T22:40:15.141Z,14.50
2018-10-03T22:42:45.482Z,14.60
2018-10-03T22:45:18.567Z,14.50
2018-10-03T22:47:49.672Z,14.60
2018-10-03T22:50:26.672Z,14.70
2018-10-03T22:52:57.410Z,14.70
2018-10-03T22:55:36.614Z,14.70
2018-10-03T22:58:10.182Z,14.70
2018-10-03T23:00:42.015Z,14.70
2018-10-03T23:03:13.639Z,14.70
2018-10-03T23:05:45.920Z,14.70
2018-10-03T23:08:16.253Z,14.60
2018-10-03T23:10:47.804Z,14.70
2018-10-03T23:13:18.140Z,14.60
2018-10-03T23:15:48.666Z,14.70
2018-10-03T23:18:19.446Z,14.70
2018-10-03T23:20:49.980Z,14.60
2018-10-03T23:23:25.256Z,14.60
2018-10-03T23:25:56.681Z,14.50
2018-10-03T23:28:28.673Z,14.50
2018-10-03T23:31:05.584Z,14.40
2018-10-03T23:33:36.034Z,14.40
2018-10-03T23:36:10.157Z,14.40
2018-10-03T23:38:42.457Z,14.50
2018-10-03T23:41:12.561Z,14.40
2018-10-03T23:43:51.060Z,14.50
2018-10-03T23:46:22.303Z,14.40
2018-10-03T23:48:56.217Z,14.50
2018-10-03T23:51:35.381Z,14.50
2018-10-03T23:54:05.799Z,14.60
2018-10-03T23:56:38.567Z,14.60
2018-10-03T23:59:09.023Z,14.60
